sensor_id;sensor_type;location;lat;lon;timestamp;temperature;humidity
21682;DHT22;11002;48.256;10.084;2023-09-07T00:01:20;14.60;58.80
21682;DHT22;11002;48.256;10.084;2023-09-07T00:03:47;14.60;59.20
21682;DHT22;11002;48.256;10.084;2023-09-07T00:06:14;14.60;59.20
21682;DHT22;11002;48.256;10.084;2023-09-07T00:08:41;14.50;59.20
21682;DHT22;11002;48.256;10.084;2023-09-07T00:11:09;14.50;59.30
21682;DHT22;11002;48.256;10.084;2023-09-07T00:13:37;14.50;59.30
21682;DHT22;11002;48.256;10.084;2023-09-07T00:16:05;14.50;59.30
21682;DHT22;11002;48.256;10.084;2023-09-07T00:18:33;14.40;59.30
21682;DHT22;11002;48.256;10.084;2023-09-07T00:21:00;14.40;59.40
21682;DHT22;11002;48.256;10.084;2023-09-07T00:23:29;14.40;59.90
21682;DHT22;11002;48.256;10.084;2023-09-07T00:25:56;14.30;60.50
21682;DHT22;11002;48.256;10.084;2023-09-07T00:28:23;14.30;60.70
21682;DHT22;11002;48.256;10.084;2023-09-07T00:30:52;14.30;60.90
21682;DHT22;11002;48.256;10.084;2023-09-07T00:33:19;14.20;60.80
21682;DHT22;11002;48.256;10.084;2023-09-07T00:35:47;14.20;60.80
21682;DHT22;11002;48.256;10.084;2023-09-07T00:38:14;14.20;60.80
21682;DHT22;11002;48.256;10.084;2023-09-07T00:40:43;14.20;60.70
21682;DHT22;11002;48.256;10.084;2023-09-07T00:43:11;14.10;60.40
21682;DHT22;11002;48.256;10.084;2023-09-07T00:45:38;14.10;60.50
21682;DHT22;11002;48.256;10.084;2023-09-07T00:48:08;14.10;60.50
21682;DHT22;11002;48.256;10.084;2023-09-07T00:50:35;14.10;60.70
21682;DHT22;11002;48.256;10.084;2023-09-07T00:53:03;14.10;60.70
21682;DHT22;11002;48.256;10.084;2023-09-07T00:55:33;14.10;60.90
21682;DHT22;11002;48.256;10.084;2023-09-07T00:58:01;14.10;60.80
21682;DHT22;11002;48.256;10.084;2023-09-07T01:00:29;14.10;60.90
21682;DHT22;11002;48.256;10.084;2023-09-07T01:02:57;14.10;61.10
21682;DHT22;11002;48.256;10.084;2023-09-07T01:05:30;14.00;61.20
21682;DHT22;11002;48.256;10.084;2023-09-07T01:08:06;14.00;61.90
21682;DHT22;11002;48.256;10.084;2023-09-07T01:10:35;14.00;62.10
21682;DHT22;11002;48.256;10.084;2023-09-07T01:13:03;13.90;61.90
21682;DHT22;11002;48.256;10.084;2023-09-07T01:15:30;13.90;61.90
21682;DHT22;11002;48.256;10.084;2023-09-07T01:17:58;13.90;61.90
21682;DHT22;11002;48.256;10.084;2023-09-07T01:20:29;13.80;61.90
21682;DHT22;11002;48.256;10.084;2023-09-07T01:22:58;13.80;61.90
21682;DHT22;11002;48.256;10.084;2023-09-07T01:25:26;13.80;61.80
21682;DHT22;11002;48.256;10.084;2023-09-07T01:27:54;13.70;61.80
21682;DHT22;11002;48.256;10.084;2023-09-07T01:30:22;13.70;61.80
21682;DHT22;11002;48.256;10.084;2023-09-07T01:32:49;13.70;61.80
21682;DHT22;11002;48.256;10.084;2023-09-07T01:35:16;13.70;61.80
21682;DHT22;11002;48.256;10.084;2023-09-07T01:37:47;13.70;61.80
21682;DHT22;11002;48.256;10.084;2023-09-07T01:40:16;13.60;61.60
21682;DHT22;11002;48.256;10.084;2023-09-07T01:42:43;13.60;61.60
21682;DHT22;11002;48.256;10.084;2023-09-07T01:45:11;13.60;61.70
21682;DHT22;11002;48.256;10.084;2023-09-07T01:47:38;13.50;61.50
21682;DHT22;11002;48.256;10.084;2023-09-07T01:50:06;13.50;61.90
21682;DHT22;11002;48.256;10.084;2023-09-07T01:52:33;13.50;61.90
21682;DHT22;11002;48.256;10.084;2023-09-07T01:55:00;13.50;62.00
21682;DHT22;11002;48.256;10.084;2023-09-07T01:57:30;13.50;62.00
21682;DHT22;11002;48.256;10.084;2023-09-07T01:59:58;13.50;61.70
21682;DHT22;11002;48.256;10.084;2023-09-07T02:02:25;13.50;61.60
21682;DHT22;11002;48.256;10.084;2023-09-07T02:04:52;13.50;62.10
21682;DHT22;11002;48.256;10.084;2023-09-07T02:07:19;13.50;62.30
21682;DHT22;11002;48.256;10.084;2023-09-07T02:09:47;13.40;62.40
21682;DHT22;11002;48.256;10.084;2023-09-07T02:12:15;13.40;62.50
21682;DHT22;11002;48.256;10.084;2023-09-07T02:14:43;13.40;62.60
21682;DHT22;11002;48.256;10.084;2023-09-07T02:17:10;13.40;62.70
21682;DHT22;11002;48.256;10.084;2023-09-07T02:19:43;13.40;63.20
21682;DHT22;11002;48.256;10.084;2023-09-07T02:22:11;13.40;63.40
21682;DHT22;11002;48.256;10.084;2023-09-07T02:24:38;13.40;63.50
21682;DHT22;11002;48.256;10.084;2023-09-07T02:27:05;13.40;64.20
21682;DHT22;11002;48.256;10.084;2023-09-07T02:29:33;13.30;64.50
21682;DHT22;11002;48.256;10.084;2023-09-07T02:32:01;13.30;65.00
21682;DHT22;11002;48.256;10.084;2023-09-07T02:34:30;13.20;65.40
21682;DHT22;11002;48.256;10.084;2023-09-07T02:36:57;13.20;65.90
21682;DHT22;11002;48.256;10.084;2023-09-07T02:39:25;13.20;65.90
21682;DHT22;11002;48.256;10.084;2023-09-07T02:41:52;13.10;66.60
21682;DHT22;11002;48.256;10.084;2023-09-07T02:44:20;13.10;65.90
21682;DHT22;11002;48.256;10.084;2023-09-07T02:46:47;13.10;65.80
21682;DHT22;11002;48.256;10.084;2023-09-07T02:49:16;13.10;65.90
21682;DHT22;11002;48.256;10.084;2023-09-07T02:51:43;13.10;66.00
21682;DHT22;11002;48.256;10.084;2023-09-07T02:54:11;13.10;66.00
21682;DHT22;11002;48.256;10.084;2023-09-07T02:56:38;13.00;65.90
21682;DHT22;11002;48.256;10.084;2023-09-07T02:59:05;13.00;65.70
21682;DHT22;11002;48.256;10.084;2023-09-07T03:01:33;13.00;65.70
21682;DHT22;11002;48.256;10.084;2023-09-07T03:04:00;13.00;65.40
21682;DHT22;11002;48.256;10.084;2023-09-07T03:06:31;13.00;65.40
21682;DHT22;11002;48.256;10.084;2023-09-07T03:08:58;12.90;65.40
21682;DHT22;11002;48.256;10.084;2023-09-07T03:11:25;12.90;65.40
21682;DHT22;11002;48.256;10.084;2023-09-07T03:13:55;12.90;65.40
21682;DHT22;11002;48.256;10.084;2023-09-07T03:16:23;12.80;65.50
21682;DHT22;11002;48.256;10.084;2023-09-07T03:18:50;12.80;65.50
21682;DHT22;11002;48.256;10.084;2023-09-07T03:21:17;12.80;65.70
21682;DHT22;11002;48.256;10.084;2023-09-07T03:23:46;12.70;65.90
21682;DHT22;11002;48.256;10.084;2023-09-07T03:26:15;12.70;66.60
21682;DHT22;11002;48.256;10.084;2023-09-07T03:28:42;12.70;67.60
21682;DHT22;11002;48.256;10.084;2023-09-07T03:31:10;12.60;67.50
21682;DHT22;11002;48.256;10.084;2023-09-07T03:33:37;12.60;67.60
21682;DHT22;11002;48.256;10.084;2023-09-07T03:36:04;12.60;67.50
21682;DHT22;11002;48.256;10.084;2023-09-07T03:38:32;12.60;67.50
21682;DHT22;11002;48.256;10.084;2023-09-07T03:41:00;12.70;67.50
21682;DHT22;11002;48.256;10.084;2023-09-07T03:43:28;12.70;66.90
21682;DHT22;11002;48.256;10.084;2023-09-07T03:45:57;12.70;66.90
21682;DHT22;11002;48.256;10.084;2023-09-07T03:48:24;12.70;67.50
21682;DHT22;11002;48.256;10.084;2023-09-07T03:50:51;12.60;67.50
21682;DHT22;11002;48.256;10.084;2023-09-07T03:53:19;12.60;67.50
21682;DHT22;11002;48.256;10.084;2023-09-07T03:55:46;12.60;67.50
21682;DHT22;11002;48.256;10.084;2023-09-07T03:58:17;12.60;67.50
21682;DHT22;11002;48.256;10.084;2023-09-07T04:00:45;12.60;67.50
21682;DHT22;11002;48.256;10.084;2023-09-07T04:03:12;12.50;67.40
21682;DHT22;11002;48.256;10.084;2023-09-07T04:05:40;12.50;68.00
21682;DHT22;11002;48.256;10.084;2023-09-07T04:08:07;12.50;68.70
21682;DHT22;11002;48.256;10.084;2023-09-07T04:10:37;12.50;69.00
21682;DHT22;11002;48.256;10.084;2023-09-07T04:13:05;12.50;68.80
21682;DHT22;11002;48.256;10.084;2023-09-07T04:15:39;12.50;68.60
21682;DHT22;11002;48.256;10.084;2023-09-07T04:18:09;12.50;68.20
21682;DHT22;11002;48.256;10.084;2023-09-07T04:20:38;12.50;68.10
21682;DHT22;11002;48.256;10.084;2023-09-07T04:23:06;12.50;67.90
21682;DHT22;11002;48.256;10.084;2023-09-07T04:25:33;12.50;67.50
21682;DHT22;11002;48.256;10.084;2023-09-07T04:28:00;12.40;67.70
21682;DHT22;11002;48.256;10.084;2023-09-07T04:30:27;12.40;68.30
21682;DHT22;11002;48.256;10.084;2023-09-07T04:32:56;12.40;68.70
21682;DHT22;11002;48.256;10.084;2023-09-07T04:35:28;12.40;68.80
21682;DHT22;11002;48.256;10.084;2023-09-07T04:37:56;12.40;68.80
21682;DHT22;11002;48.256;10.084;2023-09-07T04:40:24;12.40;68.80
21682;DHT22;11002;48.256;10.084;2023-09-07T04:42:51;12.40;68.80
21682;DHT22;11002;48.256;10.084;2023-09-07T04:45:18;12.40;68.90
21682;DHT22;11002;48.256;10.084;2023-09-07T04:47:46;12.40;68.60
21682;DHT22;11002;48.256;10.084;2023-09-07T04:50:15;12.40;68.60
21682;DHT22;11002;48.256;10.084;2023-09-07T04:52:42;12.40;68.50
21682;DHT22;11002;48.256;10.084;2023-09-07T04:55:10;12.40;68.20
21682;DHT22;11002;48.256;10.084;2023-09-07T04:57:37;12.40;68.10
21682;DHT22;11002;48.256;10.084;2023-09-07T05:00:06;12.40;68.40
21682;DHT22;11002;48.256;10.084;2023-09-07T05:02:35;12.40;68.40
21682;DHT22;11002;48.256;10.084;2023-09-07T05:05:07;12.40;68.40
21682;DHT22;11002;48.256;10.084;2023-09-07T05:07:36;12.40;68.50
21682;DHT22;11002;48.256;10.084;2023-09-07T05:10:04;12.40;68.40
21682;DHT22;11002;48.256;10.084;2023-09-07T05:12:32;12.40;68.50
21682;DHT22;11002;48.256;10.084;2023-09-07T05:15:00;12.40;68.70
21682;DHT22;11002;48.256;10.084;2023-09-07T05:17:28;12.40;68.90
21682;DHT22;11002;48.256;10.084;2023-09-07T05:19:55;12.40;68.90
21682;DHT22;11002;48.256;10.084;2023-09-07T05:22:22;12.50;68.70
21682;DHT22;11002;48.256;10.084;2023-09-07T05:24:53;12.50;68.40
21682;DHT22;11002;48.256;10.084;2023-09-07T05:27:20;12.60;68.30
21682;DHT22;11002;48.256;10.084;2023-09-07T05:29:48;12.60;68.40
21682;DHT22;11002;48.256;10.084;2023-09-07T05:32:15;12.60;67.90
21682;DHT22;11002;48.256;10.084;2023-09-07T05:34:43;12.70;67.70
21682;DHT22;11002;48.256;10.084;2023-09-07T05:37:10;12.80;68.00
21682;DHT22;11002;48.256;10.084;2023-09-07T05:39:38;12.90;67.80
21682;DHT22;11002;48.256;10.084;2023-09-07T05:42:07;12.90;67.80
21682;DHT22;11002;48.256;10.084;2023-09-07T05:44:35;13.00;67.90
21682;DHT22;11002;48.256;10.084;2023-09-07T05:47:03;13.10;68.00
21682;DHT22;11002;48.256;10.084;2023-09-07T05:49:30;13.20;68.10
21682;DHT22;11002;48.256;10.084;2023-09-07T05:51:57;13.20;68.10
21682;DHT22;11002;48.256;10.084;2023-09-07T05:54:25;13.30;67.40
21682;DHT22;11002;48.256;10.084;2023-09-07T05:56:52;13.40;67.10
21682;DHT22;11002;48.256;10.084;2023-09-07T05:59:21;13.50;66.90
21682;DHT22;11002;48.256;10.084;2023-09-07T06:01:48;13.50;66.80
21682;DHT22;11002;48.256;10.084;2023-09-07T06:04:15;13.60;66.60
21682;DHT22;11002;48.256;10.084;2023-09-07T06:06:42;13.70;66.80
21682;DHT22;11002;48.256;10.084;2023-09-07T06:09:10;13.70;67.10
21682;DHT22;11002;48.256;10.084;2023-09-07T06:11:38;13.70;67.40
21682;DHT22;11002;48.256;10.084;2023-09-07T06:14:07;13.80;67.50
21682;DHT22;11002;48.256;10.084;2023-09-07T06:16:35;13.90;67.40
21682;DHT22;11002;48.256;10.084;2023-09-07T06:19:03;13.90;67.20
21682;DHT22;11002;48.256;10.084;2023-09-07T06:21:30;14.00;67.10
21682;DHT22;11002;48.256;10.084;2023-09-07T06:23:57;14.10;67.30
21682;DHT22;11002;48.256;10.084;2023-09-07T06:26:25;14.20;67.40
21682;DHT22;11002;48.256;10.084;2023-09-07T06:28:52;14.30;67.70
21682;DHT22;11002;48.256;10.084;2023-09-07T06:31:19;14.40;67.90
21682;DHT22;11002;48.256;10.084;2023-09-07T06:33:48;14.40;68.60
21682;DHT22;11002;48.256;10.084;2023-09-07T06:36:15;14.50;68.60
21682;DHT22;11002;48.256;10.084;2023-09-07T06:38:43;14.50;69.40
21682;DHT22;11002;48.256;10.084;2023-09-07T06:41:10;14.60;69.50
21682;DHT22;11002;48.256;10.084;2023-09-07T06:43:38;14.70;69.60
21682;DHT22;11002;48.256;10.084;2023-09-07T06:46:09;14.80;69.70
21682;DHT22;11002;48.256;10.084;2023-09-07T06:48:36;14.90;71.50
21682;DHT22;11002;48.256;10.084;2023-09-07T06:51:06;15.00;71.90
21682;DHT22;11002;48.256;10.084;2023-09-07T06:53:34;15.10;72.30
21682;DHT22;11002;48.256;10.084;2023-09-07T06:56:03;15.20;72.20
21682;DHT22;11002;48.256;10.084;2023-09-07T06:58:32;15.30;72.40
21682;DHT22;11002;48.256;10.084;2023-09-07T07:01:01;15.40;72.00
21682;DHT22;11002;48.256;10.084;2023-09-07T07:03:30;15.50;72.20
21682;DHT22;11002;48.256;10.084;2023-09-07T07:05:57;15.60;71.40
21682;DHT22;11002;48.256;10.084;2023-09-07T07:08:26;15.70;71.50
21682;DHT22;11002;48.256;10.084;2023-09-07T07:10:53;15.80;70.90
21682;DHT22;11002;48.256;10.084;2023-09-07T07:13:21;15.90;70.80
21682;DHT22;11002;48.256;10.084;2023-09-07T07:15:48;16.00;70.30
21682;DHT22;11002;48.256;10.084;2023-09-07T07:18:16;16.00;70.90
21682;DHT22;11002;48.256;10.084;2023-09-07T07:20:43;16.10;68.10
21682;DHT22;11002;48.256;10.084;2023-09-07T07:23:11;16.20;68.30
21682;DHT22;11002;48.256;10.084;2023-09-07T07:25:40;16.30;68.10
21682;DHT22;11002;48.256;10.084;2023-09-07T07:28:07;16.30;66.90
21682;DHT22;11002;48.256;10.084;2023-09-07T07:30:38;16.40;66.30
21682;DHT22;11002;48.256;10.084;2023-09-07T07:33:07;16.50;65.90
21682;DHT22;11002;48.256;10.084;2023-09-07T07:35:35;16.50;64.50
21682;DHT22;11002;48.256;10.084;2023-09-07T07:38:03;16.60;64.60
21682;DHT22;11002;48.256;10.084;2023-09-07T07:40:33;16.70;66.10
21682;DHT22;11002;48.256;10.084;2023-09-07T07:43:03;16.80;64.80
21682;DHT22;11002;48.256;10.084;2023-09-07T07:45:32;16.90;64.90
21682;DHT22;11002;48.256;10.084;2023-09-07T07:48:04;16.90;64.40
21682;DHT22;11002;48.256;10.084;2023-09-07T07:50:37;17.00;61.60
21682;DHT22;11002;48.256;10.084;2023-09-07T07:53:05;17.10;61.70
21682;DHT22;11002;48.256;10.084;2023-09-07T07:55:34;17.10;60.80
21682;DHT22;11002;48.256;10.084;2023-09-07T07:58:07;17.20;60.40
21682;DHT22;11002;48.256;10.084;2023-09-07T08:00:34;17.20;61.20
21682;DHT22;11002;48.256;10.084;2023-09-07T08:03:03;17.40;59.90
21682;DHT22;11002;48.256;10.084;2023-09-07T08:05:32;17.40;60.20
21682;DHT22;11002;48.256;10.084;2023-09-07T08:08:00;17.50;58.70
21682;DHT22;11002;48.256;10.084;2023-09-07T08:10:28;17.70;58.90
21682;DHT22;11002;48.256;10.084;2023-09-07T08:12:56;17.70;58.90
21682;DHT22;11002;48.256;10.084;2023-09-07T08:15:24;17.80;58.40
21682;DHT22;11002;48.256;10.084;2023-09-07T08:17:52;17.90;59.10
21682;DHT22;11002;48.256;10.084;2023-09-07T08:20:19;18.00;59.20
21682;DHT22;11002;48.256;10.084;2023-09-07T08:22:47;18.10;59.20
21682;DHT22;11002;48.256;10.084;2023-09-07T08:25:14;18.20;58.90
21682;DHT22;11002;48.256;10.084;2023-09-07T08:27:41;18.40;57.40
21682;DHT22;11002;48.256;10.084;2023-09-07T08:30:11;18.50;56.50
21682;DHT22;11002;48.256;10.084;2023-09-07T08:32:40;18.60;55.70
21682;DHT22;11002;48.256;10.084;2023-09-07T08:35:09;18.80;54.40
21682;DHT22;11002;48.256;10.084;2023-09-07T08:37:38;18.90;52.80
21682;DHT22;11002;48.256;10.084;2023-09-07T08:40:07;19.00;53.70
21682;DHT22;11002;48.256;10.084;2023-09-07T08:42:36;19.20;52.40
21682;DHT22;11002;48.256;10.084;2023-09-07T08:45:04;19.40;52.20
21682;DHT22;11002;48.256;10.084;2023-09-07T08:47:34;19.60;51.80
21682;DHT22;11002;48.256;10.084;2023-09-07T08:50:05;19.90;48.90
21682;DHT22;11002;48.256;10.084;2023-09-07T08:52:34;20.10;48.30
21682;DHT22;11002;48.256;10.084;2023-09-07T08:55:01;20.50;48.70
21682;DHT22;11002;48.256;10.084;2023-09-07T08:57:31;20.90;46.20
21682;DHT22;11002;48.256;10.084;2023-09-07T08:59:58;21.50;44.80
21682;DHT22;11002;48.256;10.084;2023-09-07T09:02:26;22.30;42.20
21682;DHT22;11002;48.256;10.084;2023-09-07T09:04:53;23.00;39.50
21682;DHT22;11002;48.256;10.084;2023-09-07T09:07:22;23.80;38.20
21682;DHT22;11002;48.256;10.084;2023-09-07T09:09:49;24.60;34.80
21682;DHT22;11002;48.256;10.084;2023-09-07T09:12:16;25.60;31.90
21682;DHT22;11002;48.256;10.084;2023-09-07T09:14:44;26.30;28.60
21682;DHT22;11002;48.256;10.084;2023-09-07T09:17:12;27.30;27.90
21682;DHT22;11002;48.256;10.084;2023-09-07T09:19:40;27.90;25.00
21682;DHT22;11002;48.256;10.084;2023-09-07T09:22:08;28.70;23.20
21682;DHT22;11002;48.256;10.084;2023-09-07T09:24:38;29.40;21.40
21682;DHT22;11002;48.256;10.084;2023-09-07T09:27:05;29.60;20.60
21682;DHT22;11002;48.256;10.084;2023-09-07T09:29:33;30.10;19.60
21682;DHT22;11002;48.256;10.084;2023-09-07T09:32:01;30.20;18.40
21682;DHT22;11002;48.256;10.084;2023-09-07T09:34:32;30.30;18.40
21682;DHT22;11002;48.256;10.084;2023-09-07T09:37:01;30.10;18.30
21682;DHT22;11002;48.256;10.084;2023-09-07T09:39:29;30.30;18.40
21682;DHT22;11002;48.256;10.084;2023-09-07T09:41:58;30.40;18.50
21682;DHT22;11002;48.256;10.084;2023-09-07T09:44:29;30.50;18.50
21682;DHT22;11002;48.256;10.084;2023-09-07T09:46:57;30.60;18.50
21682;DHT22;11002;48.256;10.084;2023-09-07T09:49:26;30.30;18.40
21682;DHT22;11002;48.256;10.084;2023-09-07T09:51:55;30.30;18.40
21682;DHT22;11002;48.256;10.084;2023-09-07T09:54:26;30.20;18.30
21682;DHT22;11002;48.256;10.084;2023-09-07T09:56:53;30.00;18.30
21682;DHT22;11002;48.256;10.084;2023-09-07T09:59:22;29.50;19.20
21682;DHT22;11002;48.256;10.084;2023-09-07T10:01:53;29.30;20.30
21682;DHT22;11002;48.256;10.084;2023-09-07T10:04:21;29.10;21.50
21682;DHT22;11002;48.256;10.084;2023-09-07T10:06:55;28.80;21.00
21682;DHT22;11002;48.256;10.084;2023-09-07T10:09:22;28.70;21.70
21682;DHT22;11002;48.256;10.084;2023-09-07T10:11:53;28.60;22.50
21682;DHT22;11002;48.256;10.084;2023-09-07T10:14:22;28.60;22.50
21682;DHT22;11002;48.256;10.084;2023-09-07T10:16:50;28.50;23.10
21682;DHT22;11002;48.256;10.084;2023-09-07T10:19:20;28.30;23.00
21682;DHT22;11002;48.256;10.084;2023-09-07T10:21:48;28.40;22.90
21682;DHT22;11002;48.256;10.084;2023-09-07T10:24:26;28.20;23.30
21682;DHT22;11002;48.256;10.084;2023-09-07T10:26:59;28.30;23.00
21682;DHT22;11002;48.256;10.084;2023-09-07T10:29:28;28.40;22.40
21682;DHT22;11002;48.256;10.084;2023-09-07T10:31:55;28.30;23.00
21682;DHT22;11002;48.256;10.084;2023-09-07T10:34:34;28.10;23.80
21682;DHT22;11002;48.256;10.084;2023-09-07T10:37:02;28.30;24.20
21682;DHT22;11002;48.256;10.084;2023-09-07T10:39:31;28.30;23.10
21682;DHT22;11002;48.256;10.084;2023-09-07T10:41:58;28.60;23.60
21682;DHT22;11002;48.256;10.084;2023-09-07T10:44:27;28.80;23.40
21682;DHT22;11002;48.256;10.084;2023-09-07T10:46:55;29.10;22.00
21682;DHT22;11002;48.256;10.084;2023-09-07T10:49:23;29.40;22.50
21682;DHT22;11002;48.256;10.084;2023-09-07T10:51:50;29.70;21.40
21682;DHT22;11002;48.256;10.084;2023-09-07T10:54:18;29.60;21.10
21682;DHT22;11002;48.256;10.084;2023-09-07T10:56:49;29.60;21.30
21682;DHT22;11002;48.256;10.084;2023-09-07T10:59:17;29.80;21.90
21682;DHT22;11002;48.256;10.084;2023-09-07T11:01:45;29.90;21.90
21682;DHT22;11002;48.256;10.084;2023-09-07T11:04:14;29.70;21.00
21682;DHT22;11002;48.256;10.084;2023-09-07T11:06:43;29.80;21.60
21682;DHT22;11002;48.256;10.084;2023-09-07T11:09:10;29.60;21.80
21682;DHT22;11002;48.256;10.084;2023-09-07T11:11:38;29.60;22.30
21682;DHT22;11002;48.256;10.084;2023-09-07T11:14:07;29.80;21.90
21682;DHT22;11002;48.256;10.084;2023-09-07T11:16:34;29.90;21.00
21682;DHT22;11002;48.256;10.084;2023-09-07T11:19:06;30.00;22.10
21682;DHT22;11002;48.256;10.084;2023-09-07T11:21:34;29.90;21.70
21682;DHT22;11002;48.256;10.084;2023-09-07T11:24:02;29.80;21.50
21682;DHT22;11002;48.256;10.084;2023-09-07T11:26:40;30.00;21.50
21682;DHT22;11002;48.256;10.084;2023-09-07T11:29:08;30.20;21.80
21682;DHT22;11002;48.256;10.084;2023-09-07T11:31:35;30.40;21.30
21682;DHT22;11002;48.256;10.084;2023-09-07T11:34:03;30.80;21.10
21682;DHT22;11002;48.256;10.084;2023-09-07T11:36:31;30.90;20.10
21682;DHT22;11002;48.256;10.084;2023-09-07T11:38:59;30.90;19.50
21682;DHT22;11002;48.256;10.084;2023-09-07T11:41:26;30.80;20.00
21682;DHT22;11002;48.256;10.084;2023-09-07T11:43:53;30.80;19.50
21682;DHT22;11002;48.256;10.084;2023-09-07T11:46:20;30.70;20.30
21682;DHT22;11002;48.256;10.084;2023-09-07T11:48:48;31.00;18.80
21682;DHT22;11002;48.256;10.084;2023-09-07T11:51:15;31.20;18.80
21682;DHT22;11002;48.256;10.084;2023-09-07T11:53:44;31.00;18.80
21682;DHT22;11002;48.256;10.084;2023-09-07T11:56:11;31.10;18.80
21682;DHT22;11002;48.256;10.084;2023-09-07T11:58:38;30.90;19.90
21682;DHT22;11002;48.256;10.084;2023-09-07T12:01:06;30.90;19.60
21682;DHT22;11002;48.256;10.084;2023-09-07T12:03:34;31.10;18.80
21682;DHT22;11002;48.256;10.084;2023-09-07T12:06:02;31.30;18.90
21682;DHT22;11002;48.256;10.084;2023-09-07T12:08:29;31.00;18.80
21682;DHT22;11002;48.256;10.084;2023-09-07T12:10:58;30.80;19.20
21682;DHT22;11002;48.256;10.084;2023-09-07T12:13:25;30.40;20.00
21682;DHT22;11002;48.256;10.084;2023-09-07T12:15:52;30.40;20.80
21682;DHT22;11002;48.256;10.084;2023-09-07T12:18:21;30.30;20.20
21682;DHT22;11002;48.256;10.084;2023-09-07T12:20:49;30.30;21.00
21682;DHT22;11002;48.256;10.084;2023-09-07T12:23:17;30.40;20.90
21682;DHT22;11002;48.256;10.084;2023-09-07T12:25:44;30.50;20.70
21682;DHT22;11002;48.256;10.084;2023-09-07T12:28:17;30.30;21.00
21682;DHT22;11002;48.256;10.084;2023-09-07T12:30:46;30.10;21.40
21682;DHT22;11002;48.256;10.084;2023-09-07T12:33:14;30.20;22.10
21682;DHT22;11002;48.256;10.084;2023-09-07T12:35:42;30.50;21.50
21682;DHT22;11002;48.256;10.084;2023-09-07T12:38:12;30.40;20.00
21682;DHT22;11002;48.256;10.084;2023-09-07T12:40:43;30.30;20.50
21682;DHT22;11002;48.256;10.084;2023-09-07T12:43:10;30.40;19.80
21682;DHT22;11002;48.256;10.084;2023-09-07T12:45:39;30.60;20.10
21682;DHT22;11002;48.256;10.084;2023-09-07T12:48:07;30.40;20.10
21682;DHT22;11002;48.256;10.084;2023-09-07T12:50:35;30.40;20.90
21682;DHT22;11002;48.256;10.084;2023-09-07T12:53:02;30.50;21.40
21682;DHT22;11002;48.256;10.084;2023-09-07T12:55:29;30.50;19.90
21682;DHT22;11002;48.256;10.084;2023-09-07T12:57:57;30.20;20.60
21682;DHT22;11002;48.256;10.084;2023-09-07T13:00:25;30.20;21.20
21682;DHT22;11002;48.256;10.084;2023-09-07T13:02:53;30.30;21.20
21682;DHT22;11002;48.256;10.084;2023-09-07T13:05:21;30.30;20.80
21682;DHT22;11002;48.256;10.084;2023-09-07T13:07:48;30.00;20.80
21682;DHT22;11002;48.256;10.084;2023-09-07T13:10:15;29.70;21.80
21682;DHT22;11002;48.256;10.084;2023-09-07T13:12:42;29.40;22.10
21682;DHT22;11002;48.256;10.084;2023-09-07T13:15:10;29.40;22.60
21682;DHT22;11002;48.256;10.084;2023-09-07T13:17:37;29.40;23.00
21682;DHT22;11002;48.256;10.084;2023-09-07T13:20:07;29.40;23.50
21682;DHT22;11002;48.256;10.084;2023-09-07T13:22:34;29.30;23.00
21682;DHT22;11002;48.256;10.084;2023-09-07T13:25:02;29.30;23.00
21682;DHT22;11002;48.256;10.084;2023-09-07T13:27:30;29.00;22.50
21682;DHT22;11002;48.256;10.084;2023-09-07T13:29:58;28.80;23.70
21682;DHT22;11002;48.256;10.084;2023-09-07T13:32:27;28.70;25.10
21682;DHT22;11002;48.256;10.084;2023-09-07T13:34:54;28.80;24.00
21682;DHT22;11002;48.256;10.084;2023-09-07T13:37:24;28.60;24.10
21682;DHT22;11002;48.256;10.084;2023-09-07T13:39:51;28.50;24.70
21682;DHT22;11002;48.256;10.084;2023-09-07T13:42:18;28.30;24.10
21682;DHT22;11002;48.256;10.084;2023-09-07T13:44:45;28.00;23.90
21682;DHT22;11002;48.256;10.084;2023-09-07T13:47:13;28.00;26.00
21682;DHT22;11002;48.256;10.084;2023-09-07T13:49:40;28.00;25.00
21682;DHT22;11002;48.256;10.084;2023-09-07T13:52:07;27.90;24.20
21682;DHT22;11002;48.256;10.084;2023-09-07T13:54:36;27.60;24.80
21682;DHT22;11002;48.256;10.084;2023-09-07T13:57:03;27.50;25.40
21682;DHT22;11002;48.256;10.084;2023-09-07T13:59:31;27.40;25.60
21682;DHT22;11002;48.256;10.084;2023-09-07T14:02:00;27.40;25.40
21682;DHT22;11002;48.256;10.084;2023-09-07T14:04:27;27.30;26.30
21682;DHT22;11002;48.256;10.084;2023-09-07T14:06:56;27.30;25.80
21682;DHT22;11002;48.256;10.084;2023-09-07T14:09:24;27.20;26.60
21682;DHT22;11002;48.256;10.084;2023-09-07T14:11:52;27.10;27.80
21682;DHT22;11002;48.256;10.084;2023-09-07T14:14:20;27.10;26.30
21682;DHT22;11002;48.256;10.084;2023-09-07T14:16:47;27.10;27.80
21682;DHT22;11002;48.256;10.084;2023-09-07T14:19:16;27.00;27.30
21682;DHT22;11002;48.256;10.084;2023-09-07T14:21:43;26.90;27.70
21682;DHT22;11002;48.256;10.084;2023-09-07T14:24:11;26.90;27.70
21682;DHT22;11002;48.256;10.084;2023-09-07T14:26:38;26.80;27.60
21682;DHT22;11002;48.256;10.084;2023-09-07T14:29:06;26.70;28.10
21682;DHT22;11002;48.256;10.084;2023-09-07T14:31:34;26.70;27.60
21682;DHT22;11002;48.256;10.084;2023-09-07T14:34:01;26.60;27.50
21682;DHT22;11002;48.256;10.084;2023-09-07T14:36:28;26.60;27.50
21682;DHT22;11002;48.256;10.084;2023-09-07T14:38:55;26.60;27.50
21682;DHT22;11002;48.256;10.084;2023-09-07T14:41:23;26.60;27.60
21682;DHT22;11002;48.256;10.084;2023-09-07T14:43:50;26.50;27.50
21682;DHT22;11002;48.256;10.084;2023-09-07T14:46:19;26.50;27.50
21682;DHT22;11002;48.256;10.084;2023-09-07T14:48:48;26.50;27.50
21682;DHT22;11002;48.256;10.084;2023-09-07T14:51:15;26.50;27.50
21682;DHT22;11002;48.256;10.084;2023-09-07T14:53:43;26.40;27.40
21682;DHT22;11002;48.256;10.084;2023-09-07T14:56:10;26.40;27.50
21682;DHT22;11002;48.256;10.084;2023-09-07T14:58:37;26.30;27.40
21682;DHT22;11002;48.256;10.084;2023-09-07T15:01:05;26.30;27.40
21682;DHT22;11002;48.256;10.084;2023-09-07T15:03:34;26.30;27.40
21682;DHT22;11002;48.256;10.084;2023-09-07T15:06:06;26.20;27.40
21682;DHT22;11002;48.256;10.084;2023-09-07T15:08:33;26.10;27.30
21682;DHT22;11002;48.256;10.084;2023-09-07T15:11:00;26.10;27.30
21682;DHT22;11002;48.256;10.084;2023-09-07T15:13:28;26.10;27.30
21682;DHT22;11002;48.256;10.084;2023-09-07T15:15:55;26.10;27.30
21682;DHT22;11002;48.256;10.084;2023-09-07T15:18:22;26.10;27.30
21682;DHT22;11002;48.256;10.084;2023-09-07T15:20:51;26.00;27.20